createdAt,value
2022-09-20T00:00:40.008Z,6.30
2022-09-20T00:03:06.751Z,6.40
2022-09-20T00:05:37.550Z,5.40
2022-09-20T00:08:05.746Z,5.78
2022-09-20T00:10:39.429Z,5.13
2022-09-20T00:13:07.749Z,5.60
2022-09-20T00:15:35.120Z,5.70
2022-09-20T00:18:01.770Z,5.20
2022-09-20T00:20:28.600Z,6.07
2022-09-20T00:22:55.656Z,5.63
2022-09-20T00:25:22.662Z,5.80
2022-09-20T00:27:49.361Z,5.22
2022-09-20T00:30:16.072Z,5.43
2022-09-20T00:32:42.711Z,5.03
2022-09-20T00:35:11.319Z,5.75
2022-09-20T00:37:40.192Z,6.43
2022-09-20T00:40:10.047Z,6.00
2022-09-20T00:42:37.027Z,6.03
2022-09-20T00:45:06.819Z,5.78
2022-09-20T00:47:43.624Z,5.38
2022-09-20T00:50:35.234Z,6.05
2022-09-20T00:53:09.963Z,5.13
2022-09-20T00:55:40.061Z,5.45
2022-09-20T00:58:07.014Z,5.38
2022-09-20T01:00:33.817Z,5.00
2022-09-20T01:03:03.890Z,5.18
2022-09-20T01:05:30.860Z,5.88
2022-09-20T01:07:57.931Z,6.28
2022-09-20T01:10:24.588Z,6.45
2022-09-20T01:12:52.494Z,6.38
2022-09-20T01:15:19.954Z,6.63
2022-09-20T01:17:48.895Z,5.93
2022-09-20T01:20:32.775Z,5.70
2022-09-20T01:23:08.775Z,5.53
2022-09-20T01:25:47.636Z,5.68
2022-09-20T01:28:14.698Z,5.22
2022-09-20T01:30:48.364Z,5.28
2022-09-20T01:33:28.919Z,5.72
2022-09-20T01:35:57.485Z,5.45
2022-09-20T01:38:34.601Z,5.13
2022-09-20T01:41:11.425Z,5.13
2022-09-20T01:43:49.631Z,5.15
2022-09-20T01:46:31.193Z,4.88
2022-09-20T01:49:07.330Z,5.72
2022-09-20T01:52:06.261Z,5.15
2022-09-20T01:54:58.050Z,5.07
2022-09-20T01:57:54.022Z,5.30
2022-09-20T02:00:23.533Z,4.95
2022-09-20T02:03:26.605Z,5.43
2022-09-20T02:06:23.643Z,5.70
2022-09-20T02:09:08.391Z,5.30
2022-09-20T02:11:38.121Z,6.03
2022-09-20T02:14:19.130Z,7.10
2022-09-20T02:17:13.987Z,6.82
2022-09-20T02:19:52.890Z,7.63
2022-09-20T02:22:31.956Z,6.35
2022-09-20T02:25:09.617Z,8.93
2022-09-20T02:27:53.848Z,6.43
2022-09-20T02:30:35.195Z,7.38
2022-09-20T02:33:36.196Z,6.47
2022-09-20T02:36:27.325Z,6.32
2022-09-20T02:39:00.093Z,6.60
2022-09-20T02:41:45.681Z,6.15
2022-09-20T02:44:33.687Z,6.75
2022-09-20T02:47:12.580Z,5.75
2022-09-20T02:49:53.814Z,5.35
2022-09-20T02:52:28.252Z,3.67
2022-09-20T02:55:25.797Z,4.22
2022-09-20T02:58:29.960Z,3.53
2022-09-20T03:01:17.622Z,3.33
2022-09-20T03:03:59.938Z,3.15
2022-09-20T03:06:41.776Z,3.17
2022-09-20T03:10:05.044Z,2.73
2022-09-20T03:12:38.351Z,3.40
2022-09-20T03:15:32.725Z,2.97
2022-09-20T03:18:22.292Z,2.72
2022-09-20T03:21:03.766Z,3.20
2022-09-20T03:23:54.938Z,2.55
2022-09-20T03:26:30.616Z,2.92
2022-09-20T03:29:02.174Z,3.03
2022-09-20T03:31:47.659Z,2.60
2022-09-20T03:34:37.851Z,2.95
2022-09-20T03:37:29.487Z,3.28
2022-09-20T03:40:30.374Z,2.65
2022-09-20T03:43:04.774Z,2.70
2022-09-20T03:45:43.526Z,2.95
2022-09-20T03:48:39.759Z,2.50
2022-09-20T03:51:33.800Z,2.85
2022-09-20T03:54:23.108Z,3.38
2022-09-20T03:57:04.002Z,3.10
2022-09-20T04:00:11.083Z,2.50
2022-09-20T04:02:40.954Z,2.50
2022-09-20T04:05:10.646Z,2.95
2022-09-20T04:08:30.054Z,2.67
2022-09-20T04:11:15.816Z,2.28
2022-09-20T04:14:05.912Z,2.75
2022-09-20T04:16:58.971Z,3.08
2022-09-20T04:19:45.681Z,2.25
2022-09-20T04:22:12.580Z,3.20
2022-09-20T04:24:53.209Z,2.85
2022-09-20T04:27:27.831Z,3.28
2022-09-20T04:30:05.555Z,2.45
2022-09-20T04:32:54.279Z,2.92
2022-09-20T04:36:10.360Z,2.30
2022-09-20T04:38:37.294Z,3.22
2022-09-20T04:41:22.359Z,3.05
2022-09-20T04:44:09.846Z,2.88
2022-09-20T04:46:56.204Z,2.70
2022-09-20T04:49:25.972Z,3.20
2022-09-20T04:51:58.288Z,3.28
2022-09-20T04:54:47.301Z,3.25
2022-09-20T04:57:23.601Z,3.38
2022-09-20T05:00:07.449Z,3.03
2022-09-20T05:02:50.684Z,4.15
2022-09-20T05:05:51.482Z,3.65
2022-09-20T05:08:42.610Z,3.33
2022-09-20T05:11:30.442Z,3.60
2022-09-20T05:14:40.995Z,4.07
2022-09-20T05:17:37.344Z,3.22
2022-09-20T05:20:36.259Z,4.07
2022-09-20T05:23:13.522Z,4.03
2022-09-20T05:26:10.658Z,3.95
2022-09-20T05:28:49.769Z,3.95
2022-09-20T05:31:35.290Z,3.78
2022-09-20T05:34:15.221Z,3.78
2022-09-20T05:37:20.628Z,3.28
2022-09-20T05:39:54.989Z,3.33
2022-09-20T05:42:41.436Z,3.63
2022-09-20T05:45:43.581Z,3.40
2022-09-20T05:48:32.492Z,3.88
2022-09-20T05:51:23.884Z,4.20
2022-09-20T05:54:03.225Z,3.83
2022-09-20T05:56:36.277Z,3.65
2022-09-20T05:59:14.803Z,3.35
2022-09-20T06:01:55.913Z,3.30
2022-09-20T06:04:36.348Z,3.70
2022-09-20T06:07:12.182Z,3.13
2022-09-20T06:09:53.343Z,3.10
2022-09-20T06:12:31.305Z,2.67
2022-09-20T06:15:12.727Z,3.28
2022-09-20T06:18:03.548Z,2.78
2022-09-20T06:20:37.748Z,2.58
2022-09-20T06:23:05.677Z,2.97
2022-09-20T06:25:57.379Z,2.42
2022-09-20T06:28:30.821Z,2.80
2022-09-20T06:30:58.192Z,2.90
2022-09-20T06:33:26.693Z,2.90
2022-09-20T06:35:59.259Z,3.05
2022-09-20T06:41:28.425Z,2.67
2022-09-20T06:43:59.685Z,3.00
2022-09-20T06:46:30.645Z,2.70
2022-09-20T06:48:57.826Z,3.13
2022-09-20T06:51:26.359Z,2.90
2022-09-20T06:53:58.235Z,2.60
2022-09-20T06:56:30.042Z,2.67
2022-09-20T06:58:57.127Z,3.20
2022-09-20T07:01:30.250Z,2.90
2022-09-20T07:03:59.741Z,2.33
2022-09-20T07:06:29.289Z,2.78
2022-09-20T07:08:55.899Z,2.75
2022-09-20T07:11:23.385Z,2.20
2022-09-20T07:13:52.230Z,2.40
2022-09-20T07:16:18.984Z,2.95
2022-09-20T07:18:47.351Z,3.58
2022-09-20T07:21:19.107Z,2.85
2022-09-20T07:23:46.185Z,2.70
2022-09-20T07:26:22.053Z,3.10
2022-09-20T07:28:49.619Z,3.58
2022-09-20T07:31:18.505Z,2.80
2022-09-20T07:33:45.271Z,3.47
2022-09-20T07:36:15.015Z,3.83
2022-09-20T07:38:43.142Z,3.42
2022-09-20T07:41:10.613Z,4.43
2022-09-20T07:43:37.350Z,3.20
2022-09-20T07:46:04.162Z,2.92
2022-09-20T07:48:33.315Z,4.03
2022-09-20T07:51:08.604Z,3.30
2022-09-20T07:53:36.550Z,3.60
2022-09-20T07:56:04.629Z,3.60
2022-09-20T07:58:34.099Z,4.53
2022-09-20T08:01:03.737Z,4.25
2022-09-20T08:03:31.863Z,4.30
2022-09-20T08:06:03.138Z,3.55
2022-09-20T08:08:36.427Z,4.07
2022-09-20T08:11:05.553Z,3.42
2022-09-20T08:16:27.735Z,2.88
2022-09-20T08:18:57.326Z,3.92
2022-09-20T08:21:25.083Z,4.30
2022-09-20T08:23:51.849Z,3.38
2022-09-20T08:26:24.789Z,2.90
2022-09-20T08:28:53.689Z,3.20
2022-09-20T08:31:22.319Z,2.90
2022-09-20T08:33:53.085Z,2.80
2022-09-20T08:36:22.158Z,2.97
2022-09-20T08:41:40.195Z,2.40
2022-09-20T08:44:25.118Z,2.58
2022-09-20T08:47:23.159Z,2.65
2022-09-20T08:49:56.743Z,2.67
2022-09-20T08:52:37.212Z,2.03
2022-09-20T08:55:13.791Z,1.75
2022-09-20T08:57:40.446Z,2.05
2022-09-20T09:00:07.908Z,1.63
2022-09-20T09:02:35.533Z,2.55
2022-09-20T09:05:03.461Z,2.00
2022-09-20T09:07:30.831Z,2.13
2022-09-20T09:09:57.546Z,1.85
2022-09-20T09:12:31.152Z,2.75
2022-09-20T09:15:00.458Z,1.90
2022-09-20T09:17:29.059Z,1.40
2022-09-20T09:19:59.393Z,1.67
2022-09-20T09:22:39.703Z,2.22
2022-09-20T09:25:21.673Z,2.45
2022-09-20T09:27:57.560Z,2.58
2022-09-20T09:30:33.392Z,1.98
2022-09-20T09:33:26.517Z,1.65
2022-09-20T09:35:56.960Z,1.40
2022-09-20T09:38:29.957Z,1.55
2022-09-20T09:41:01.809Z,1.58
2022-09-20T09:43:33.133Z,1.40
2022-09-20T09:46:23.789Z,1.50
2022-09-20T09:49:12.566Z,1.48
2022-09-20T09:51:42.533Z,1.77
2022-09-20T09:54:18.207Z,1.55
2022-09-20T09:57:07.126Z,1.10
2022-09-20T09:59:51.978Z,1.80
2022-09-20T10:02:48.180Z,1.80
2022-09-20T10:05:23.689Z,1.60
2022-09-20T10:08:29.159Z,1.63
2022-09-20T10:11:07.132Z,1.83
2022-09-20T10:14:15.795Z,1.20
2022-09-20T10:16:51.691Z,1.52
2022-09-20T10:19:55.672Z,1.75
2022-09-20T10:22:34.683Z,1.40
2022-09-20T10:25:27.900Z,1.13
2022-09-20T10:28:05.938Z,1.55
2022-09-20T10:31:27.654Z,1.65
2022-09-20T10:34:09.671Z,1.45
2022-09-20T10:36:39.634Z,1.30
2022-09-20T10:39:25.364Z,1.20
2022-09-20T10:42:41.744Z,1.10
2022-09-20T10:46:14.407Z,1.20
2022-09-20T10:48:35.731Z,1.02
2022-09-20T10:51:19.619Z,1.75
2022-09-20T10:54:08.567Z,1.45
2022-09-20T10:56:47.166Z,1.55
2022-09-20T10:59:27.940Z,1.40
2022-09-20T11:02:14.265Z,1.23
2022-09-20T11:05:26.414Z,1.67
2022-09-20T11:07:58.464Z,1.60
2022-09-20T11:10:52.523Z,1.73
2022-09-20T11:13:27.453Z,1.63
2022-09-20T11:16:03.277Z,1.40
2022-09-20T11:18:39.236Z,1.63
2022-09-20T11:21:21.171Z,1.50
2022-09-20T11:24:26.735Z,1.10
2022-09-20T11:26:57.027Z,1.35
2022-09-20T11:29:36.423Z,1.17
2022-09-20T11:32:13.920Z,1.45
2022-09-20T11:34:51.322Z,1.67
2022-09-20T11:37:19.046Z,1.38
2022-09-20T11:40:13.487Z,1.33
2022-09-20T11:42:41.746Z,1.13
2022-09-20T11:45:12.604Z,1.52
2022-09-20T11:47:54.421Z,1.50
2022-09-20T11:50:29.309Z,1.48
2022-09-20T11:53:31.148Z,1.58
2022-09-20T11:56:18.399Z,1.25
2022-09-20T11:58:48.314Z,1.27
2022-09-20T12:01:28.260Z,1.60
2022-09-20T12:04:14.572Z,2.05
2022-09-20T12:06:46.442Z,2.20
2022-09-20T12:09:35.448Z,1.40
2022-09-20T12:12:32.247Z,1.60
2022-09-20T12:15:01.259Z,1.70
2022-09-20T12:17:46.096Z,1.52
2022-09-20T12:20:44.958Z,1.30
2022-09-20T12:23:40.440Z,2.05
2022-09-20T12:26:14.203Z,1.23
2022-09-20T12:28:44.679Z,1.63
2022-09-20T12:31:29.228Z,1.30
2022-09-20T12:34:10.076Z,1.75
2022-09-20T12:36:38.927Z,1.30
2022-09-20T12:39:06.934Z,1.27
2022-09-20T12:41:55.122Z,1.58
2022-09-20T12:44:49.326Z,1.25
2022-09-20T12:47:20.148Z,1.38
2022-09-20T12:50:05.699Z,1.42
2022-09-20T12:52:50.425Z,1.33
2022-09-20T12:55:30.000Z,1.40
2022-09-20T12:58:14.606Z,1.50
2022-09-20T13:00:49.085Z,1.60
2022-09-20T13:03:15.643Z,1.70
2022-09-20T13:05:46.615Z,1.40
2022-09-20T13:08:18.177Z,1.48
2022-09-20T13:11:00.662Z,1.50
2022-09-20T13:13:58.320Z,1.60
2022-09-20T13:16:47.862Z,1.50
2022-09-20T13:19:23.600Z,1.27
2022-09-20T13:21:57.739Z,1.50
2022-09-20T13:24:25.984Z,1.30
2022-09-20T13:26:54.279Z,1.48
2022-09-20T13:29:47.349Z,1.42
2022-09-20T13:32:22.814Z,1.50
2022-09-20T13:35:11.277Z,2.03
2022-09-20T13:37:49.419Z,1.50
2022-09-20T13:40:20.383Z,1.55
2022-09-20T13:42:49.263Z,1.00
2022-09-20T13:45:17.178Z,1.30
2022-09-20T13:47:48.992Z,1.00
2022-09-20T13:50:23.243Z,1.40
2022-09-20T13:52:55.540Z,1.48
2022-09-20T13:55:34.407Z,1.48
2022-09-20T13:58:04.296Z,1.30
2022-09-20T14:00:31.865Z,1.42
2022-09-20T14:02:59.403Z,1.50
2022-09-20T14:05:28.995Z,1.77
2022-09-20T14:07:56.746Z,1.70
2022-09-20T14:10:29.155Z,1.95
2022-09-20T14:12:56.069Z,2.13
2022-09-20T14:15:22.885Z,1.77
2022-09-20T14:17:52.260Z,1.65
2022-09-20T14:20:18.969Z,1.55
2022-09-20T14:22:46.063Z,1.55
2022-09-20T14:25:15.510Z,1.50
2022-09-20T14:27:42.458Z,1.67
2022-09-20T14:30:37.321Z,1.60
2022-09-20T14:33:05.582Z,1.48
2022-09-20T14:35:32.656Z,1.63
2022-09-20T14:38:01.931Z,2.03
2022-09-20T14:40:33.499Z,2.17
2022-09-20T14:43:07.433Z,1.87
2022-09-20T14:45:40.329Z,1.75
2022-09-20T14:48:29.630Z,1.73
2022-09-20T14:51:27.687Z,1.67
2022-09-20T14:54:06.606Z,1.45
2022-09-20T14:56:38.909Z,1.75
2022-09-20T14:59:11.700Z,2.05
2022-09-20T15:01:41.350Z,1.45
2022-09-20T15:04:10.235Z,1.58
2022-09-20T15:06:40.084Z,1.70
2022-09-20T15:09:06.997Z,1.35
2022-09-20T15:11:33.753Z,2.20
2022-09-20T15:14:00.426Z,1.77
2022-09-20T15:16:27.718Z,1.58
2022-09-20T15:18:55.034Z,1.65
2022-09-20T15:21:22.037Z,1.83
2022-09-20T15:23:48.794Z,1.70
2022-09-20T15:26:16.702Z,1.67
2022-09-20T15:28:43.365Z,1.65
2022-09-20T15:31:10.487Z,1.60
2022-09-20T15:33:37.237Z,1.55
2022-09-20T15:36:04.098Z,1.65
2022-09-20T15:38:30.852Z,1.48
2022-09-20T15:41:00.508Z,1.63
2022-09-20T15:43:28.300Z,1.95
2022-09-20T15:45:57.000Z,1.75
2022-09-20T15:48:26.283Z,1.95
2022-09-20T15:51:04.520Z,1.88
2022-09-20T15:53:39.503Z,1.77
2022-09-20T15:56:24.109Z,2.17
2022-09-20T15:59:01.678Z,1.80
2022-09-20T16:01:30.131Z,2.30
2022-09-20T16:03:56.830Z,5.43
2022-09-20T16:06:24.048Z,4.70
2022-09-20T16:08:51.592Z,4.30
2022-09-20T16:11:22.913Z,6.07
2022-09-20T16:13:57.966Z,6.72
2022-09-20T16:16:26.345Z,7.03
2022-09-20T16:19:11.951Z,4.45
2022-09-20T16:21:40.506Z,4.30
2022-09-20T16:24:08.159Z,1.95
2022-09-20T16:26:35.918Z,1.65
2022-09-20T16:29:07.546Z,2.60
2022-09-20T16:31:42.393Z,2.90
2022-09-20T16:34:32.493Z,2.67
2022-09-20T16:37:12.064Z,2.15
2022-09-20T16:39:38.766Z,1.70
2022-09-20T16:42:09.167Z,2.05
2022-09-20T16:44:38.258Z,2.50
2022-09-20T16:47:08.113Z,1.90
2022-09-20T16:49:36.294Z,1.60
2022-09-20T16:52:06.617Z,1.58
2022-09-20T16:54:33.926Z,1.55
2022-09-20T16:57:00.822Z,1.60
2022-09-20T16:59:27.515Z,1.90
2022-09-20T17:01:55.155Z,1.77
2022-09-20T17:04:21.881Z,1.52
2022-09-20T17:06:49.822Z,1.88
2022-09-20T17:09:16.848Z,1.75
2022-09-20T17:11:49.614Z,2.00
2022-09-20T17:14:19.285Z,2.60
2022-09-20T17:16:49.218Z,2.30
2022-09-20T17:19:18.616Z,1.92
2022-09-20T17:21:50.135Z,2.00
2022-09-20T17:24:19.034Z,1.83
2022-09-20T17:26:45.904Z,1.90
2022-09-20T17:29:15.427Z,1.85
2022-09-20T17:31:44.289Z,1.75
2022-09-20T17:34:12.266Z,2.05
2022-09-20T17:36:42.284Z,1.90
2022-09-20T17:39:13.027Z,1.80
2022-09-20T17:41:41.279Z,2.10
2022-09-20T17:44:11.988Z,2.08
2022-09-20T17:46:43.410Z,2.03
2022-09-20T17:49:15.284Z,2.00
2022-09-20T17:51:44.260Z,2.03
2022-09-20T17:54:14.470Z,1.80
2022-09-20T17:56:46.497Z,1.80
2022-09-20T17:59:16.250Z,2.13
2022-09-20T18:01:44.569Z,2.30
2022-09-20T18:04:12.088Z,2.00
2022-09-20T18:06:47.090Z,2.00
2022-09-20T18:09:18.846Z,1.85
2022-09-20T18:11:50.657Z,2.03
2022-09-20T18:14:20.431Z,3.00
2022-09-20T18:16:47.248Z,2.10
2022-09-20T18:19:16.085Z,2.28
2022-09-20T18:21:42.982Z,3.08
2022-09-20T18:24:11.260Z,2.40
2022-09-20T18:26:38.924Z,2.50
2022-09-20T18:29:12.313Z,2.20
2022-09-20T18:31:43.140Z,2.22
2022-09-20T18:34:18.141Z,3.10
2022-09-20T18:36:53.173Z,2.75
2022-09-20T18:39:24.319Z,2.75
2022-09-20T18:41:51.494Z,2.40
2022-09-20T18:44:18.663Z,3.00
2022-09-20T18:46:46.479Z,3.15
2022-09-20T18:49:14.961Z,2.50
2022-09-20T18:51:43.040Z,3.08
2022-09-20T18:54:11.100Z,2.33
2022-09-20T18:56:39.423Z,2.28
2022-09-20T18:59:23.011Z,2.45
2022-09-20T19:02:16.137Z,2.55
2022-09-20T19:07:27.667Z,2.28
2022-09-20T19:10:06.173Z,2.55
2022-09-20T19:12:59.984Z,2.40
2022-09-20T19:15:55.691Z,3.40
2022-09-20T19:18:24.223Z,4.25
2022-09-20T19:21:17.039Z,4.78
2022-09-20T19:24:04.994Z,4.68
2022-09-20T19:26:38.189Z,4.45
2022-09-20T19:29:21.667Z,4.82
2022-09-20T19:31:50.756Z,4.47
2022-09-20T19:34:23.296Z,4.68
2022-09-20T19:37:18.703Z,4.82
2022-09-20T19:40:09.015Z,6.22
2022-09-20T19:43:16.779Z,6.00
2022-09-20T19:46:14.451Z,6.90
2022-09-20T19:48:48.322Z,6.15
2022-09-20T19:51:17.064Z,6.22
2022-09-20T19:53:43.906Z,4.55
2022-09-20T19:56:28.056Z,4.53
2022-09-20T19:58:56.143Z,4.05
2022-09-20T20:01:24.560Z,4.75
2022-09-20T20:03:54.512Z,4.35
2022-09-20T20:06:32.932Z,4.60
2022-09-20T20:09:08.731Z,5.15
2022-09-20T20:11:47.341Z,5.55
2022-09-20T20:14:21.483Z,5.68
2022-09-20T20:17:10.941Z,5.40
2022-09-20T20:19:50.822Z,5.05
2022-09-20T20:22:47.868Z,5.00
2022-09-20T20:25:40.574Z,5.03
2022-09-20T20:28:07.838Z,4.72
2022-09-20T20:30:34.812Z,5.18
2022-09-20T20:33:04.123Z,5.25
2022-09-20T20:35:30.902Z,4.72
2022-09-20T20:37:58.158Z,5.30
2022-09-20T20:40:24.947Z,4.95
2022-09-20T20:43:02.081Z,5.18
2022-09-20T20:45:29.880Z,5.70
2022-09-20T20:47:59.914Z,5.05
2022-09-20T20:50:28.086Z,5.97
2022-09-20T20:52:56.332Z,5.18
2022-09-20T20:55:23.781Z,5.25
2022-09-20T20:57:58.165Z,6.40
2022-09-20T21:00:26.298Z,6.18
2022-09-20T21:02:58.403Z,5.72
2022-09-20T21:05:26.059Z,6.15
2022-09-20T21:07:53.167Z,5.45
2022-09-20T21:10:19.829Z,5.78
2022-09-20T21:12:46.544Z,6.35
2022-09-20T21:15:15.475Z,5.70
2022-09-20T21:17:42.138Z,6.38
2022-09-20T21:20:09.695Z,5.82
2022-09-20T21:22:38.319Z,6.63
2022-09-20T21:25:07.594Z,6.00
2022-09-20T21:27:37.064Z,6.55
2022-09-20T21:30:05.052Z,6.70
2022-09-20T21:32:31.727Z,6.65
2022-09-20T21:34:58.485Z,6.38
2022-09-20T21:37:25.211Z,6.63
2022-09-20T21:39:52.285Z,7.53
2022-09-20T21:42:18.909Z,6.28
2022-09-20T21:44:45.686Z,6.70
2022-09-20T21:47:18.934Z,5.78
2022-09-20T21:49:45.771Z,5.93
2022-09-20T21:52:12.422Z,7.05
2022-09-20T21:54:39.081Z,6.68
2022-09-20T21:57:05.965Z,6.97
2022-09-20T21:59:32.648Z,7.20
2022-09-20T22:01:59.263Z,6.80
2022-09-20T22:04:27.484Z,6.68
2022-09-20T22:06:54.138Z,7.55
2022-09-20T22:09:20.815Z,7.68
2022-09-20T22:11:48.722Z,8.05
2022-09-20T22:14:17.469Z,7.65
2022-09-20T22:16:45.263Z,7.38
2022-09-20T22:19:13.993Z,6.75
2022-09-20T22:21:45.434Z,8.07
2022-09-20T22:24:13.672Z,7.75
2022-09-20T22:26:50.696Z,7.65
2022-09-20T22:29:17.719Z,8.05
2022-09-20T22:31:45.762Z,7.40
2022-09-20T22:34:23.704Z,8.13
2022-09-20T22:36:50.525Z,7.00
2022-09-20T22:39:17.284Z,7.65
2022-09-20T22:41:44.572Z,8.05
2022-09-20T22:44:11.624Z,7.00
2022-09-20T22:46:38.889Z,7.18
2022-09-20T22:49:06.517Z,7.03
2022-09-20T22:51:33.597Z,6.35
2022-09-20T22:54:01.097Z,6.90
2022-09-20T22:56:29.909Z,7.10
2022-09-20T22:59:03.272Z,6.78
2022-09-20T23:01:34.254Z,6.47
2022-09-20T23:04:07.870Z,6.47
2022-09-20T23:06:38.640Z,6.40
2022-09-20T23:09:08.180Z,7.30
2022-09-20T23:11:35.683Z,6.53
2022-09-20T23:14:05.143Z,6.53
2022-09-20T23:16:36.538Z,7.15
2022-09-20T23:19:04.830Z,6.82
2022-09-20T23:21:32.492Z,6.75
2022-09-20T23:24:01.424Z,6.43
2022-09-20T23:26:29.938Z,6.97
2022-09-20T23:29:07.925Z,6.88
2022-09-20T23:31:36.523Z,6.53
2022-09-20T23:34:04.854Z,6.60
2022-09-20T23:36:33.308Z,6.18
2022-09-20T23:39:00.041Z,7.38
2022-09-20T23:41:28.077Z,7.30
2022-09-20T23:43:55.378Z,6.70
2022-09-20T23:46:23.370Z,6.85
2022-09-20T23:48:53.262Z,8.02
2022-09-20T23:51:23.927Z,7.32
2022-09-20T23:53:51.797Z,7.57
2022-09-20T23:56:19.582Z,7.20
2022-09-20T23:58:46.559Z,7.78
